createdAt,value
2018-06-05T00:01:14.668Z,7.07
2018-06-05T00:03:42.753Z,6.83
2018-06-05T00:06:11.048Z,7.73
2018-06-05T00:08:39.140Z,7.50
2018-06-05T00:11:07.324Z,7.10
2018-06-05T00:13:35.568Z,7.58
2018-06-05T00:16:03.640Z,7.77
2018-06-05T00:18:31.778Z,8.17
2018-06-05T00:21:00.356Z,8.63
2018-06-05T00:23:28.528Z,7.97
2018-06-05T00:25:56.632Z,8.07
2018-06-05T00:28:24.744Z,9.80
2018-06-05T00:30:53.324Z,9.40
2018-06-05T00:33:21.395Z,9.18
2018-06-05T00:35:49.963Z,8.45
2018-06-05T00:38:18.060Z,7.93
2018-06-05T00:40:46.136Z,8.60
2018-06-05T00:43:17.112Z,8.88
2018-06-05T00:45:51.072Z,7.80
2018-06-05T00:48:19.412Z,8.20
2018-06-05T00:50:48.296Z,8.80
2018-06-05T00:53:17.584Z,8.70
2018-06-05T00:55:45.685Z,9.68
2018-06-05T00:58:13.812Z,7.25
2018-06-05T01:00:41.898Z,8.30
2018-06-05T01:03:10.140Z,9.40
2018-06-05T01:05:38.713Z,9.23
2018-06-05T01:08:07.589Z,9.88
2018-06-05T01:10:37.500Z,9.00
2018-06-05T01:13:05.613Z,9.60
2018-06-05T01:15:33.866Z,8.97
2018-06-05T01:18:01.974Z,7.80
2018-06-05T01:20:30.075Z,9.47
2018-06-05T01:22:58.240Z,8.77
2018-06-05T01:25:26.357Z,8.50
2018-06-05T01:27:55.055Z,8.87
2018-06-05T01:30:24.259Z,10.40
2018-06-05T01:32:52.353Z,10.13
2018-06-05T01:35:20.420Z,7.50
2018-06-05T01:37:48.500Z,9.40
2018-06-05T01:40:17.202Z,7.28
2018-06-05T01:42:45.288Z,9.00
2018-06-05T01:45:13.393Z,10.00
2018-06-05T01:47:41.836Z,9.90
2018-06-05T01:50:10.849Z,11.43
2018-06-05T01:52:39.322Z,11.07
2018-06-05T01:55:07.649Z,10.17
2018-06-05T01:57:36.972Z,10.63
2018-06-05T02:00:05.181Z,9.80
2018-06-05T02:02:33.279Z,10.67
2018-06-05T02:05:01.617Z,11.10
2018-06-05T02:07:30.464Z,11.33
2018-06-05T02:09:58.643Z,10.50
2018-06-05T02:12:26.832Z,12.33
2018-06-05T02:14:55.068Z,10.30
2018-06-05T02:17:23.160Z,11.00
2018-06-05T02:19:51.759Z,11.50
2018-06-05T02:22:21.160Z,11.03
2018-06-05T02:24:51.540Z,10.93
2018-06-05T02:27:20.762Z,11.50
2018-06-05T02:29:49.080Z,10.40
2018-06-05T02:32:17.676Z,12.30
2018-06-05T02:34:45.779Z,11.60
2018-06-05T02:37:13.956Z,12.13
2018-06-05T02:39:42.074Z,10.97
2018-06-05T02:42:10.644Z,10.75
2018-06-05T02:44:38.856Z,11.70
2018-06-05T02:47:06.984Z,11.20
2018-06-05T02:49:35.428Z,11.90
2018-06-05T02:52:03.537Z,10.77
2018-06-05T02:54:31.733Z,10.67
2018-06-05T02:57:00.280Z,12.37
2018-06-05T02:59:28.684Z,10.50
2018-06-05T03:01:56.862Z,11.77
2018-06-05T03:04:25.952Z,11.97
2018-06-05T03:06:54.301Z,12.53
2018-06-05T03:09:22.414Z,12.05
2018-06-05T03:11:51.334Z,12.28
2018-06-05T03:14:19.444Z,12.00
2018-06-05T03:16:48.767Z,11.80
2018-06-05T03:19:16.935Z,13.80
2018-06-05T03:21:45.068Z,13.90
2018-06-05T03:24:13.162Z,13.70
2018-06-05T03:26:42.188Z,13.50
2018-06-05T03:29:10.865Z,12.00
2018-06-05T03:31:39.648Z,14.60
2018-06-05T03:34:08.760Z,13.30
2018-06-05T03:36:36.872Z,11.80
2018-06-05T03:39:06.428Z,10.70
2018-06-05T03:41:34.514Z,12.20
2018-06-05T03:44:03.000Z,12.63
2018-06-05T03:46:31.068Z,12.83
2018-06-05T03:48:59.701Z,14.10
2018-06-05T03:51:28.079Z,13.13
2018-06-05T03:53:56.389Z,13.67
2018-06-05T03:56:24.480Z,13.27
2018-06-05T03:58:52.619Z,12.27
2018-06-05T04:01:20.707Z,12.70
2018-06-05T04:03:48.844Z,12.00
2018-06-05T04:06:17.105Z,11.33
2018-06-05T04:08:45.184Z,11.17
2018-06-05T04:11:13.979Z,11.70
2018-06-05T04:13:42.075Z,11.77
2018-06-05T04:16:10.520Z,12.00
2018-06-05T04:18:42.731Z,11.40
2018-06-05T04:21:10.862Z,11.47
2018-06-05T04:23:39.056Z,11.60
2018-06-05T04:26:07.140Z,10.67
2018-06-05T04:28:35.373Z,11.10
2018-06-05T04:31:03.476Z,12.40
2018-06-05T04:33:31.551Z,11.03
2018-06-05T04:35:59.635Z,9.80
2018-06-05T04:38:27.709Z,10.13
2018-06-05T04:40:56.035Z,10.60
2018-06-05T04:43:24.116Z,10.53
2018-06-05T04:45:52.200Z,10.93
2018-06-05T04:48:20.482Z,11.48
2018-06-05T04:50:49.729Z,10.83
2018-06-05T04:53:17.838Z,10.00
2018-06-05T04:55:46.052Z,10.20
2018-06-05T04:58:14.233Z,12.00
2018-06-05T05:00:42.323Z,11.50
2018-06-05T05:03:10.415Z,10.43
2018-06-05T05:05:38.503Z,10.70
2018-06-05T05:08:06.663Z,12.13
2018-06-05T05:10:34.755Z,11.47
2018-06-05T05:13:02.839Z,10.07
2018-06-05T05:15:31.006Z,11.77
2018-06-05T05:17:59.083Z,10.10
2018-06-05T05:20:27.420Z,9.03
2018-06-05T05:22:55.528Z,10.37
2018-06-05T05:25:23.992Z,9.13
2018-06-05T05:27:52.301Z,8.50
2018-06-05T05:30:20.403Z,8.90
2018-06-05T05:32:48.480Z,9.57
2018-06-05T05:35:18.396Z,9.10
2018-06-05T05:37:46.497Z,9.00
2018-06-05T05:40:14.621Z,10.57
2018-06-05T05:42:42.711Z,8.38
2018-06-05T05:45:10.901Z,9.77
2018-06-05T05:47:38.996Z,8.47
2018-06-05T05:50:07.088Z,10.47
2018-06-05T05:52:35.176Z,8.93
2018-06-05T05:55:03.317Z,9.87
2018-06-05T05:57:31.531Z,9.90
2018-06-05T05:59:59.616Z,10.07
2018-06-05T06:02:27.784Z,10.60
2018-06-05T06:04:56.119Z,11.00
2018-06-05T06:07:24.508Z,10.60
2018-06-05T06:09:52.784Z,9.60
2018-06-05T06:12:21.042Z,9.50
2018-06-05T06:14:49.329Z,10.03
2018-06-05T06:17:17.420Z,10.57
2018-06-05T06:19:45.552Z,10.40
2018-06-05T06:22:13.652Z,10.07
2018-06-05T06:24:41.731Z,11.50
2018-06-05T06:27:09.829Z,10.03
2018-06-05T06:29:37.924Z,9.93
2018-06-05T06:32:06.042Z,11.63
2018-06-05T06:34:34.201Z,10.00
2018-06-05T06:37:02.345Z,10.00
2018-06-05T06:39:30.875Z,9.53
2018-06-05T06:41:59.197Z,10.10
2018-06-05T06:44:27.796Z,9.50
2018-06-05T06:46:55.907Z,9.63
2018-06-05T06:49:24.008Z,10.73
2018-06-05T06:51:52.280Z,10.50
2018-06-05T06:54:20.624Z,10.65
2018-06-05T06:56:48.720Z,12.03
2018-06-05T06:59:16.867Z,10.67
2018-06-05T07:01:44.965Z,10.60
2018-06-05T07:04:13.088Z,11.33
2018-06-05T07:06:41.176Z,11.00
2018-06-05T07:09:09.427Z,10.40
2018-06-05T07:11:37.532Z,11.47
2018-06-05T07:14:05.646Z,11.20
2018-06-05T07:16:33.684Z,11.93
2018-06-05T07:19:01.801Z,11.47
2018-06-05T07:21:29.904Z,10.60
2018-06-05T07:23:58.637Z,10.38
2018-06-05T07:26:26.720Z,11.88
2018-06-05T07:28:54.831Z,11.53
2018-06-05T07:31:22.946Z,10.47
2018-06-05T07:33:51.073Z,10.67
2018-06-05T07:36:19.174Z,11.67
2018-06-05T07:38:47.270Z,11.40
2018-06-05T07:41:15.393Z,11.27
2018-06-05T07:43:43.489Z,10.87
2018-06-05T07:46:11.581Z,8.90
2018-06-05T07:48:39.795Z,10.67
2018-06-05T07:51:07.864Z,10.47
2018-06-05T07:53:36.016Z,11.68
2018-06-05T07:56:05.089Z,10.65
2018-06-05T07:58:33.182Z,12.68
2018-06-05T08:01:01.280Z,11.12
2018-06-05T08:03:29.411Z,9.90
2018-06-05T08:05:57.768Z,11.90
2018-06-05T08:08:26.095Z,12.03
2018-06-05T08:10:54.724Z,12.07
2018-06-05T08:13:22.854Z,13.00
2018-06-05T08:15:50.971Z,10.70
2018-06-05T08:18:19.105Z,10.03
2018-06-05T08:20:47.319Z,10.90
2018-06-05T08:23:16.485Z,10.80
2018-06-05T08:25:44.576Z,10.13
2018-06-05T08:28:12.723Z,9.87
2018-06-05T08:30:40.844Z,9.30
2018-06-05T08:33:08.940Z,11.53
2018-06-05T08:35:37.034Z,11.65
2018-06-05T08:38:05.446Z,10.07
2018-06-05T08:40:33.536Z,9.67
2018-06-05T08:43:02.268Z,10.77
2018-06-05T08:45:30.361Z,10.05
2018-06-05T08:47:58.635Z,11.10
2018-06-05T08:50:26.744Z,10.00
2018-06-05T08:52:55.973Z,9.97
2018-06-05T08:55:24.221Z,10.40
2018-06-05T08:57:52.628Z,9.97
2018-06-05T09:00:20.724Z,12.43
2018-06-05T09:02:49.644Z,11.40
2018-06-05T09:05:17.759Z,9.30
2018-06-05T09:07:45.831Z,10.90
2018-06-05T09:10:14.093Z,9.80
2018-06-05T09:12:42.204Z,10.30
2018-06-05T09:15:10.368Z,10.00
2018-06-05T09:17:38.459Z,11.20
2018-06-05T09:20:06.662Z,9.40
2018-06-05T09:22:35.537Z,10.77
2018-06-05T09:25:03.665Z,9.80
2018-06-05T09:27:32.001Z,10.47
2018-06-05T09:30:00.326Z,11.10
2018-06-05T09:32:28.512Z,10.20
2018-06-05T09:34:56.672Z,11.10
2018-06-05T09:37:24.784Z,10.30
2018-06-05T09:39:53.109Z,10.63
2018-06-05T09:42:21.935Z,10.63
2018-06-05T09:44:50.096Z,9.98
2018-06-05T09:47:18.168Z,10.63
2018-06-05T09:49:46.366Z,10.80
2018-06-05T09:52:15.160Z,10.93
2018-06-05T09:54:43.280Z,10.03
2018-06-05T09:57:11.394Z,9.10
2018-06-05T09:59:39.492Z,10.27
2018-06-05T10:02:07.587Z,9.77
2018-06-05T10:04:35.768Z,10.90
2018-06-05T10:07:03.860Z,10.23
2018-06-05T10:09:32.072Z,8.80
2018-06-05T10:12:00.148Z,7.60
2018-06-05T10:14:29.153Z,10.38
2018-06-05T10:16:57.328Z,9.80
2018-06-05T10:19:25.416Z,9.07
2018-06-05T10:21:53.516Z,8.73
2018-06-05T10:24:21.734Z,9.50
2018-06-05T10:26:49.964Z,9.90
2018-06-05T10:29:18.064Z,9.63
2018-06-05T10:31:46.163Z,10.20
2018-06-05T10:34:14.477Z,10.80
2018-06-05T10:36:42.560Z,10.43
2018-06-05T10:39:10.637Z,10.53
2018-06-05T10:41:38.736Z,10.00
2018-06-05T10:44:07.048Z,9.90
2018-06-05T10:46:35.187Z,10.60
2018-06-05T10:49:03.236Z,10.27
2018-06-05T10:51:31.331Z,10.43
2018-06-05T10:53:59.816Z,10.30
2018-06-05T10:56:27.909Z,10.43
2018-06-05T10:58:56.287Z,11.13
2018-06-05T11:01:24.428Z,10.47
2018-06-05T11:03:52.531Z,10.80
2018-06-05T11:06:20.625Z,9.73
2018-06-05T11:08:48.720Z,10.23
2018-06-05T11:11:16.947Z,9.60
2018-06-05T11:13:45.046Z,9.63
2018-06-05T11:16:13.157Z,10.00
2018-06-05T11:18:41.438Z,9.80
2018-06-05T11:21:09.508Z,10.33
2018-06-05T11:23:37.620Z,9.77
2018-06-05T11:26:06.184Z,8.40
2018-06-05T11:28:34.296Z,9.37
2018-06-05T11:31:02.560Z,10.77
2018-06-05T11:33:31.141Z,10.00
2018-06-05T11:35:59.288Z,11.40
2018-06-05T11:38:27.379Z,11.17
2018-06-05T11:40:55.449Z,11.20
2018-06-05T11:43:23.556Z,11.70
2018-06-05T11:45:51.656Z,9.77
2018-06-05T11:48:19.763Z,10.43
2018-06-05T11:50:47.869Z,10.23
2018-06-05T11:53:16.271Z,10.70
2018-06-05T11:55:44.552Z,9.37
2018-06-05T11:58:12.632Z,9.50
2018-06-05T12:00:40.716Z,9.10
2018-06-05T12:03:09.052Z,8.17
2018-06-05T12:05:37.143Z,8.20
2018-06-05T12:08:05.248Z,8.77
2018-06-05T12:10:33.332Z,7.93
2018-06-05T12:13:01.645Z,8.57
2018-06-05T12:15:29.877Z,8.60
2018-06-05T12:17:58.253Z,7.93
2018-06-05T12:20:26.974Z,8.67
2018-06-05T12:22:55.053Z,8.67
2018-06-05T12:25:23.176Z,9.90
2018-06-05T12:27:51.471Z,8.77
2018-06-05T12:30:19.560Z,8.53
2018-06-05T12:32:47.641Z,9.43
2018-06-05T12:35:15.749Z,8.30
2018-06-05T12:37:43.867Z,8.97
2018-06-05T12:40:11.969Z,9.10
2018-06-05T12:42:40.144Z,8.83
2018-06-05T12:45:08.251Z,7.90
2018-06-05T12:47:36.372Z,8.63
2018-06-05T12:50:04.488Z,8.53
2018-06-05T12:52:32.739Z,8.83
2018-06-05T12:55:00.830Z,7.27
2018-06-05T12:57:29.013Z,8.17
2018-06-05T12:59:57.161Z,8.07
2018-06-05T13:02:25.252Z,8.80
2018-06-05T13:04:53.350Z,8.27
2018-06-05T13:07:21.432Z,7.57
2018-06-05T13:09:49.516Z,7.50
2018-06-05T13:12:17.648Z,7.47
2018-06-05T13:14:45.900Z,7.27
2018-06-05T13:17:14.195Z,8.87
2018-06-05T13:19:42.633Z,8.73
2018-06-05T13:22:10.699Z,7.80
2018-06-05T13:24:38.792Z,8.27
2018-06-05T13:27:07.786Z,7.80
2018-06-05T13:29:35.893Z,7.80
2018-06-05T13:32:04.013Z,8.10
2018-06-05T13:34:32.100Z,7.43
2018-06-05T13:37:00.194Z,6.83
2018-06-05T13:39:29.267Z,7.87
2018-06-05T13:41:57.652Z,7.00
2018-06-05T13:44:25.724Z,7.53
2018-06-05T13:46:53.841Z,7.43
2018-06-05T13:49:21.931Z,7.17
2018-06-05T13:51:50.360Z,6.93
2018-06-05T13:54:18.428Z,7.33
2018-06-05T13:56:46.577Z,6.43
2018-06-05T13:59:15.785Z,6.47
2018-06-05T14:01:44.121Z,7.23
2018-06-05T14:04:12.250Z,7.03
2018-06-05T14:06:40.561Z,7.17
2018-06-05T14:09:09.250Z,7.33
2018-06-05T14:11:37.788Z,7.23
2018-06-05T14:14:05.897Z,7.60
2018-06-05T14:16:34.064Z,7.85
2018-06-05T14:19:02.181Z,7.40
2018-06-05T14:21:30.640Z,7.33
2018-06-05T14:23:58.724Z,8.20
2018-06-05T14:26:26.871Z,6.73
2018-06-05T14:28:55.162Z,7.40
2018-06-05T14:31:24.016Z,7.80
2018-06-05T14:33:52.089Z,7.53
2018-06-05T14:36:20.205Z,7.67
2018-06-05T14:38:48.273Z,8.47
2018-06-05T14:41:16.532Z,7.25
2018-06-05T14:43:44.632Z,6.47
2018-06-05T14:46:13.732Z,6.73
2018-06-05T14:48:41.956Z,7.35
2018-06-05T14:51:10.248Z,7.12
2018-06-05T14:53:38.335Z,7.00
2018-06-05T14:56:06.425Z,7.70
2018-06-05T14:58:34.603Z,7.57
2018-06-05T15:01:02.688Z,6.47
2018-06-05T15:03:30.849Z,7.70
2018-06-05T15:05:58.916Z,7.47
2018-06-05T15:08:27.008Z,6.77
2018-06-05T15:10:55.540Z,6.97
2018-06-05T15:13:23.636Z,6.63
2018-06-05T15:15:51.716Z,7.00
2018-06-05T15:18:19.820Z,7.40
2018-06-05T15:20:47.920Z,6.85
2018-06-05T15:23:16.076Z,6.12
2018-06-05T15:25:44.184Z,7.00
2018-06-05T15:28:12.459Z,7.03
2018-06-05T15:30:40.648Z,6.47
2018-06-05T15:33:08.724Z,6.80
2018-06-05T15:35:37.701Z,6.20
2018-06-05T15:38:05.807Z,7.17
2018-06-05T15:40:34.117Z,6.97
2018-06-05T15:43:02.889Z,6.20
2018-06-05T15:45:31.099Z,6.60
2018-06-05T15:47:59.264Z,6.20
2018-06-05T15:50:27.382Z,6.43
2018-06-05T15:52:55.544Z,7.03
2018-06-05T15:55:23.652Z,7.20
2018-06-05T15:57:51.719Z,6.50
2018-06-05T16:00:19.833Z,6.47
2018-06-05T16:02:48.000Z,6.20
2018-06-05T16:05:16.356Z,6.63
2018-06-05T16:07:44.812Z,6.90
2018-06-05T16:10:12.972Z,7.10
2018-06-05T16:12:41.057Z,6.77
2018-06-05T16:15:09.174Z,7.70
2018-06-05T16:17:37.240Z,7.13
2018-06-05T16:20:05.354Z,7.50
2018-06-05T16:22:33.416Z,7.20
2018-06-05T16:25:01.504Z,7.80
2018-06-05T16:27:29.576Z,6.80
2018-06-05T16:29:57.680Z,7.20
2018-06-05T16:32:25.784Z,7.63
2018-06-05T16:34:53.882Z,7.83
2018-06-05T16:37:22.292Z,7.67
2018-06-05T16:39:50.383Z,8.33
2018-06-05T16:42:18.550Z,9.23
2018-06-05T16:44:46.621Z,8.30
2018-06-05T16:47:14.680Z,7.03
2018-06-05T16:49:42.771Z,7.60
2018-06-05T16:52:10.877Z,7.40
2018-06-05T16:54:38.978Z,7.17
2018-06-05T16:57:07.063Z,8.67
2018-06-05T16:59:35.169Z,8.28
2018-06-05T17:02:03.273Z,8.70
2018-06-05T17:04:31.521Z,8.73
2018-06-05T17:07:03.728Z,8.93
2018-06-05T17:09:31.836Z,8.00
2018-06-05T17:12:00.854Z,8.37
2018-06-05T17:14:29.008Z,8.07
2018-06-05T17:16:57.218Z,8.25
2018-06-05T17:19:25.618Z,8.80
2018-06-05T17:21:53.708Z,7.63
2018-06-05T17:24:22.006Z,8.67
2018-06-05T17:26:50.304Z,8.43
2018-06-05T17:29:18.411Z,8.48
2018-06-05T17:31:46.531Z,7.47
2018-06-05T17:34:14.609Z,8.73
2018-06-05T17:36:42.739Z,8.70
2018-06-05T17:39:11.945Z,9.25
2018-06-05T17:41:40.088Z,8.60
2018-06-05T17:44:08.169Z,8.53
2018-06-05T17:46:36.267Z,9.83
2018-06-05T17:49:04.360Z,9.50
2018-06-05T17:51:32.448Z,9.37
2018-06-05T17:54:00.533Z,8.43
2018-06-05T17:56:28.630Z,8.73
2018-06-05T17:58:56.926Z,10.10
2018-06-05T18:01:25.017Z,9.47
2018-06-05T18:03:53.565Z,9.70
2018-06-05T18:06:21.621Z,8.80
2018-06-05T18:08:49.792Z,9.85
2018-06-05T18:11:19.929Z,9.33
2018-06-05T18:13:49.169Z,10.80
2018-06-05T18:16:17.575Z,8.70
2018-06-05T18:18:45.669Z,8.17
2018-06-05T18:21:13.769Z,9.90
2018-06-05T18:23:41.836Z,9.37
2018-06-05T18:26:09.916Z,9.33
2018-06-05T18:28:38.032Z,8.60
2018-06-05T18:31:06.254Z,9.60
2018-06-05T18:33:34.392Z,10.30
2018-06-05T18:36:03.530Z,10.73
2018-06-05T18:38:32.011Z,11.30
2018-06-05T18:41:00.596Z,9.50
2018-06-05T18:43:28.699Z,10.07
2018-06-05T18:45:57.048Z,10.23
2018-06-05T18:48:25.417Z,10.50
2018-06-05T18:50:53.725Z,8.83
2018-06-05T18:53:21.827Z,10.33
2018-06-05T18:55:49.899Z,11.17
2018-06-05T18:58:17.997Z,9.70
2018-06-05T19:00:46.294Z,9.50
2018-06-05T19:03:16.044Z,9.45
2018-06-05T19:05:44.127Z,10.85
2018-06-05T19:08:12.240Z,11.45
2018-06-05T19:10:40.653Z,10.00
2018-06-05T19:13:08.755Z,10.50
2018-06-05T19:15:36.838Z,10.97
2018-06-05T19:18:05.311Z,10.60
2018-06-05T19:20:33.383Z,10.83
2018-06-05T19:23:01.480Z,11.43
2018-06-05T19:25:29.562Z,10.97
2018-06-05T19:27:57.696Z,9.75
2018-06-05T19:30:25.877Z,11.40
2018-06-05T19:32:54.024Z,10.93
2018-06-05T19:35:22.107Z,10.10
2018-06-05T19:37:50.168Z,9.87
2018-06-05T19:40:18.263Z,10.30
2018-06-05T19:42:46.852Z,11.90
2018-06-05T19:45:15.079Z,9.63
2018-06-05T19:47:43.167Z,11.33
2018-06-05T19:50:11.296Z,10.33
2018-06-05T19:52:39.441Z,10.90
2018-06-05T19:55:07.521Z,11.03
2018-06-05T19:57:35.612Z,10.47
2018-06-05T20:00:03.692Z,10.60
2018-06-05T20:02:31.861Z,10.33
2018-06-05T20:05:00.180Z,10.55
2018-06-05T20:07:28.499Z,9.53
2018-06-05T20:09:56.617Z,10.38
2018-06-05T20:12:27.520Z,9.97
2018-06-05T20:14:56.131Z,10.13
2018-06-05T20:17:24.216Z,10.40
2018-06-05T20:19:52.674Z,11.60
2018-06-05T20:22:20.889Z,12.90
2018-06-05T20:24:48.967Z,13.90
2018-06-05T20:27:17.102Z,9.60
2018-06-05T20:29:45.758Z,10.63
2018-06-05T20:32:13.960Z,9.20
2018-06-05T20:34:42.052Z,10.07
2018-06-05T20:37:10.260Z,10.03
2018-06-05T20:39:38.356Z,10.00
2018-06-05T20:42:06.440Z,11.23
2018-06-05T20:44:34.548Z,11.03
2018-06-05T20:47:02.648Z,10.10
2018-06-05T20:49:31.063Z,11.13
2018-06-05T20:51:59.148Z,9.80
2018-06-05T21:00:29.124Z,9.80
2018-06-05T21:08:34.358Z,11.40
2018-06-05T21:13:36.635Z,12.37
2018-06-05T21:16:04.846Z,9.57
2018-06-05T21:18:32.978Z,12.75
2018-06-05T21:21:01.118Z,12.17
2018-06-05T21:32:36.894Z,12.10
2018-06-05T21:35:05.086Z,10.20
2018-06-05T21:37:34.043Z,11.97
2018-06-05T21:40:02.302Z,10.33
2018-06-05T21:42:30.426Z,10.93
2018-06-05T21:48:35.330Z,12.83
